Time;durP1;ratioP1;P1;durP2;ratioP2;P2;SDS_P1;SDS_P2;PMS_P1;PMS_P2;Temp;Humidity;BMP_temperature;BMP_pressure;BME280_temperature;BME280_humidity;BME280_pressure;Samples;Min_cycle;Max_cycle;Signal;HPM_P1;HPM_P2
2022/04/18 00:01:50;;;;;;;5.88;3.40;;;;;;;3.46;75.67;99274.31;5001422;28;20030;-88
2022/04/18 00:04:16;;;;;;;5.38;3.80;;;;;;;3.51;76.51;99261.97;4985615;28;20029;-88
2022/04/18 00:06:41;;;;;;;5.65;3.90;;;;;;;3.65;77.02;99278.56;5002395;28;20076;-89
2022/04/18 00:09:06;;;;;;;5.55;3.80;;;;;;;3.55;77.81;99271.16;5001605;28;20025;-87
2022/04/18 00:11:33;;;;;;;3.25;2.75;;;;;;;3.65;77.02;99278.56;4985001;28;20028;-88
2022/04/18 00:13:59;;;;;;;3.58;2.92;;;;;;;3.72;78.13;99278.50;4985438;28;20499;-87
2022/04/18 00:16:24;;;;;;;3.60;2.80;;;;;;;3.81;77.28;99271.81;4984770;28;20096;-88
2022/04/18 00:18:51;;;;;;;4.80;3.13;;;;;;;3.84;77.92;99263.38;4985326;28;20041;-88
2022/04/18 00:21:16;;;;;;;5.90;3.50;;;;;;;3.78;77.58;99261.63;5000453;28;20036;-88
2022/04/18 00:23:43;;;;;;;4.75;3.55;;;;;;;3.79;76.98;99264.03;5001288;28;20498;-88
2022/04/18 00:26:08;;;;;;;4.70;3.80;;;;;;;3.83;78.08;99256.41;4985015;28;20102;-88
2022/04/18 00:28:33;;;;;;;3.97;3.40;;;;;;;3.82;78.24;99268.94;5001375;28;20026;-88
2022/04/18 00:30:59;;;;;;;4.47;3.50;;;;;;;4.03;76.32;99266.78;4985259;28;20020;-89
2022/04/18 00:33:25;;;;;;;4.45;3.60;;;;;;;3.96;76.58;99260.72;5000667;28;20029;-88
2022/04/18 00:35:51;;;;;;;5.63;4.38;;;;;;;4.11;74.68;99250.47;4984607;28;20025;-88
2022/04/18 00:38:17;;;;;;;5.78;4.43;;;;;;;4.18;75.05;99251.16;5001570;28;20025;-88
2022/04/18 00:40:43;;;;;;;6.22;4.50;;;;;;;4.11;75.35;99239.81;5000615;28;20569;-88
2022/04/18 00:43:08;;;;;;;6.07;4.63;;;;;;;4.21;74.74;99241.91;5000594;28;20021;-88
2022/04/18 00:45:33;;;;;;;6.00;4.13;;;;;;;4.30;75.08;99253.84;4984223;28;20029;-88
2022/04/18 00:47:59;;;;;;;6.07;3.97;;;;;;;4.21;75.54;99241.91;4999889;28;20029;-88
2022/04/18 00:50:25;;;;;;;6.05;4.03;;;;;;;4.32;73.67;99242.97;4983981;28;20025;-88
2022/04/18 00:52:51;;;;;;;5.13;4.00;;;;;;;4.38;73.75;99245.53;4984711;28;20025;-88
2022/04/18 00:55:17;;;;;;;5.55;4.57;;;;;;;4.36;73.90;99252.13;4984072;28;20126;-88
2022/04/18 00:57:43;;;;;;;5.93;4.07;;;;;;;4.38;73.76;99240.19;5000331;28;20030;-88
2022/04/18 01:00:08;;;;;;;6.55;4.20;;;;;;;4.39;74.70;99231.13;5016674;28;20041;-88
2022/04/18 01:02:34;;;;;;;6.10;4.15;;;;;;;4.39;73.23;99235.66;5003678;28;20025;-88
2022/04/18 01:05:00;;;;;;;6.20;4.78;;;;;;;4.38;74.07;99228.69;5019428;28;20025;-87
2022/04/18 01:07:25;;;;;;;5.72;4.43;;;;;;;4.44;73.51;99233.94;5003151;28;20029;-88
2022/04/18 01:09:51;;;;;;;6.65;4.75;;;;;;;4.44;74.39;99238.44;5020625;28;20375;-88
2022/04/18 01:12:16;;;;;;;6.50;3.95;;;;;;;4.37;73.72;99221.75;5037502;28;20021;-88
2022/04/18 01:14:48;;;;;;;5.57;4.50;;;;;;;4.48;75.21;99233.47;5019602;28;20091;-88
2022/04/18 01:17:16;;;;;;;5.57;4.50;;;;;;;4.45;75.34;99224.88;5003504;28;20104;-88
2022/04/18 01:19:42;;;;;;;5.38;4.47;;;;;;;4.49;74.43;99217.25;5003986;28;20071;-91
2022/04/18 01:22:09;;;;;;;5.40;4.10;;;;;;;4.57;73.19;99219.56;5020939;28;20032;-91
2022/04/18 01:30:05;;;;;;;7.32;4.57;;;;;;;4.37;73.49;99205.75;5026191;28;20160;-89
2022/04/18 01:32:30;;;;;;;5.55;4.35;;;;;;;4.62;73.29;99208.19;5020401;28;20124;-91
2022/04/18 01:34:57;;;;;;;6.47;4.75;;;;;;;4.53;74.19;99197.06;5004657;28;20028;-90
2022/04/18 01:37:23;;;;;;;5.10;4.07;;;;;;;4.37;73.53;99206.56;5005159;28;20024;-91
2022/04/18 01:39:48;;;;;;;4.97;4.10;;;;;;;4.43;73.04;99194.97;5004441;28;20028;-91
2022/04/18 01:42:14;;;;;;;5.90;4.40;;;;;;;4.43;73.82;99191.50;5019989;28;20036;-90
2022/04/18 01:44:39;;;;;;;4.97;4.03;;;;;;;4.49;72.83;99193.25;5020992;28;20021;-91
2022/04/18 01:47:05;;;;;;;5.93;4.03;;;;;;;4.35;72.97;99175.88;5004203;28;20017;-92
2022/04/18 01:49:30;;;;;;;5.00;3.85;;;;;;;4.48;73.30;99183.59;5020951;28;20112;-91
2022/04/18 01:51:56;;;;;;;5.03;4.10;;;;;;;4.51;73.74;99193.00;5019849;28;20021;-91
2022/04/18 01:54:22;;;;;;;7.82;4.28;;;;;;;4.41;74.34;99186.41;5004520;28;20479;-91
2022/04/18 01:56:48;;;;;;;5.05;3.92;;;;;;;4.42;73.25;99184.53;5004126;28;20021;-91
2022/04/18 01:59:13;;;;;;;6.38;4.05;;;;;;;4.42;73.40;99177.38;5004032;28;20570;-91
2022/04/18 02:01:39;;;;;;;6.00;4.28;;;;;;;4.48;72.89;99172.94;5003232;28;20479;-91
2022/04/18 02:04:04;;;;;;;4.93;3.90;;;;;;;4.30;74.56;99186.44;5021417;28;20020;-90
2022/04/18 02:06:30;;;;;;;6.40;4.25;;;;;;;4.35;73.99;99176.66;5005323;28;20017;-91
2022/04/18 02:08:56;;;;;;;5.40;4.05;;;;;;;4.34;73.49;99164.41;5020295;28;20021;-91
2022/04/18 02:11:22;;;;;;;5.45;3.95;;;;;;;4.41;73.57;99162.41;5004217;28;20460;-91
2022/04/18 02:13:47;;;;;;;5.85;4.30;;;;;;;4.39;74.90;99175.16;5004290;28;20021;-91
2022/04/18 02:16:13;;;;;;;4.93;3.63;;;;;;;4.55;74.02;99178.19;5037284;28;20017;-91
2022/04/18 02:18:38;;;;;;;5.50;3.95;;;;;;;4.44;74.13;99169.97;5003635;28;20064;-90
2022/04/18 02:21:04;;;;;;;5.40;3.80;;;;;;;4.33;74.96;99161.97;5003113;28;20021;-91
2022/04/18 02:23:29;;;;;;;6.13;4.03;;;;;;;4.36;75.89;99167.63;5019473;28;20064;-91
2022/04/18 02:25:55;;;;;;;4.93;3.80;;;;;;;4.30;74.20;99154.44;5020126;28;20029;-91
2022/04/18 02:28:20;;;;;;;5.88;4.05;;;;;;;4.31;74.24;99148.06;5003798;28;20475;-91
2022/04/18 02:30:46;;;;;;;5.72;4.15;;;;;;;4.24;76.16;99156.97;5019013;28;20386;-91
2022/04/18 02:33:11;;;;;;;5.00;3.80;;;;;;;4.39;75.63;99164.50;5002770;28;20021;-91
2022/04/18 02:35:37;;;;;;;5.38;4.03;;;;;;;4.25;75.62;99153.28;5004131;28;20048;-91
2022/04/18 02:38:03;;;;;;;4.63;3.63;;;;;;;4.31;75.35;99154.19;5021777;28;20059;-91
2022/04/18 02:40:28;;;;;;;4.88;3.67;;;;;;;4.36;75.98;99166.84;5022156;28;20025;-91
2022/04/18 02:42:53;;;;;;;6.20;3.83;;;;;;;4.44;74.82;99161.97;5006710;28;20025;-91
2022/04/18 02:45:19;;;;;;;4.97;3.55;;;;;;;4.41;74.95;99165.06;5006255;28;20024;-91
2022/04/18 02:47:45;;;;;;;5.72;4.07;;;;;;;4.39;75.08;99158.38;5022101;28;20028;-91
2022/04/18 02:50:11;;;;;;;5.40;3.83;;;;;;;4.35;74.76;99166.00;5022944;28;20013;-90
2022/04/18 02:52:38;;;;;;;4.53;3.72;;;;;;;4.30;75.50;99157.09;5023228;28;20021;-91
2022/04/18 02:55:05;;;;;;;5.97;4.10;;;;;;;4.29;75.73;99155.47;5022278;28;20052;-90
2022/04/18 02:57:30;;;;;;;4.95;3.40;;;;;;;4.33;75.36;99151.28;5006988;28;20052;-91
2022/04/18 02:59:55;;;;;;;6.75;4.13;;;;;;;4.27;76.02;99146.91;5006384;28;20052;-88
2022/04/18 03:02:21;;;;;;;3.88;3.10;;;;;;;4.19;74.28;99154.22;5006645;28;20029;-92
2022/04/18 03:04:46;;;;;;;4.13;3.17;;;;;;;4.12;74.80;99164.16;5007067;28;20033;-89
2022/04/18 03:07:12;;;;;;;4.70;3.33;;;;;;;4.05;74.80;99164.28;5007896;28;20025;-92
2022/04/18 03:09:37;;;;;;;4.68;3.53;;;;;;;3.99;75.57;99165.19;4968715;28;20049;-88
2022/04/18 03:12:03;;;;;;;5.03;3.85;;;;;;;4.07;76.52;99174.72;4983787;28;20483;-91
2022/04/18 03:14:29;;;;;;;5.63;3.60;;;;;;;3.80;76.48;99159.16;4983488;28;20041;-91
2022/04/18 03:16:56;;;;;;;4.80;3.60;;;;;;;3.90;76.40;99173.75;5000683;28;20023;-91
2022/04/18 03:19:21;;;;;;;5.30;3.50;;;;;;;4.01;76.04;99167.63;4988100;28;20056;-91
2022/04/18 03:21:48;;;;;;;4.97;3.38;;;;;;;3.93;76.07;99171.44;4986537;28;20021;-91
2022/04/18 03:24:13;;;;;;;4.40;3.20;;;;;;;4.05;76.06;99177.59;4987144;28;20057;-90
2022/04/18 03:26:39;;;;;;;3.35;2.65;;;;;;;4.03;75.03;99170.88;5003108;28;20028;-92
2022/04/18 03:29:04;;;;;;;4.15;2.75;;;;;;;3.93;75.94;99168.78;5003951;28;20030;-93
2022/04/18 03:31:30;;;;;;;3.90;3.00;;;;;;;3.85;75.66;99172.59;4996804;28;20045;-92
2022/04/18 03:33:55;;;;;;;7.88;3.30;;;;;;;3.75;76.53;99174.19;4967630;28;20030;-93
2022/04/18 03:41:48;;;;;;;3.67;2.78;;;;;;;3.80;76.63;99177.00;4990330;28;20554;-91
2022/04/18 03:44:14;;;;;;;4.68;3.05;;;;;;;3.81;76.83;99181.25;4969100;28;20033;-91
2022/04/18 03:46:39;;;;;;;4.00;3.08;;;;;;;3.88;76.95;99179.31;4966651;28;20033;-92
2022/04/18 03:49:05;;;;;;;3.78;3.33;;;;;;;3.94;75.49;99180.25;4967354;28;20057;-93
2022/04/18 03:51:30;;;;;;;5.43;2.95;;;;;;;3.70;75.68;99185.53;4968251;28;20029;-92
2022/04/18 03:53:56;;;;;;;3.88;2.88;;;;;;;3.81;75.16;99178.59;4967033;28;20467;-92
2022/04/18 03:56:21;;;;;;;3.67;2.65;;;;;;;3.88;74.87;99184.66;4965990;28;20029;-92
2022/04/18 03:58:47;;;;;;;4.88;3.30;;;;;;;3.82;75.00;99191.69;4976652;28;20056;-92
2022/04/18 04:01:12;;;;;;;3.80;3.00;;;;;;;3.59;75.71;99173.81;5006727;28;20032;-92
2022/04/18 04:03:38;;;;;;;4.53;2.80;;;;;;;3.62;76.18;99175.22;5006327;28;20028;-92
2022/04/18 04:06:03;;;;;;;5.70;3.50;;;;;;;3.69;75.79;99177.75;5008172;28;20028;-92
2022/04/18 04:08:29;;;;;;;3.97;3.42;;;;;;;3.68;75.65;99168.16;5038436;28;20106;-91
2022/04/18 04:10:54;;;;;;;3.30;2.80;;;;;;;3.77;75.33;99169.44;5019007;28;20030;-92
2022/04/18 04:13:20;;;;;;;4.10;2.97;;;;;;;3.68;76.78;99165.50;5027369;28;20047;-92
2022/04/18 04:15:45;;;;;;;4.50;2.88;;;;;;;3.76;75.66;99176.63;5024188;28;20028;-91
2022/04/18 04:18:11;;;;;;;6.78;2.78;;;;;;;3.82;75.60;99170.38;5026788;28;20031;-92
2022/04/18 04:20:36;;;;;;;3.80;2.80;;;;;;;3.83;74.58;99179.19;5026447;28;20025;-92
2022/04/18 04:23:05;;;;;;;4.13;3.22;;;;;;;3.79;75.28;99157.53;5043336;28;20020;-91
2022/04/18 04:25:30;;;;;;;7.93;5.93;;;;;;;3.78;75.62;99168.44;5026412;28;20028;-93
2022/04/18 04:27:59;;;;;;;46.85;29.33;;;;;;;3.79;75.80;99148.72;5027225;28;20031;-93
2022/04/18 04:30:24;;;;;;;5.47;3.78;;;;;;;3.87;75.05;99156.38;5025666;28;20411;-93
2022/04/18 04:32:50;;;;;;;3.60;2.78;;;;;;;3.88;75.29;99170.50;5044830;28;20028;-89
2022/04/18 04:35:19;;;;;;;4.22;3.03;;;;;;;3.96;75.48;99160.31;5024837;28;20067;-93
2022/04/18 04:37:44;;;;;;;3.92;2.92;;;;;;;3.93;75.82;99160.00;5028077;28;20032;-93
2022/04/18 04:42:12;;;;;;;4.88;3.55;;;;;;;4.17;74.55;99182.09;5111983;27;329313;-91
2022/04/18 04:44:38;;;;;;;3.53;2.88;;;;;;;4.04;74.98;99149.31;5096966;28;20028;-93
2022/04/18 04:47:04;;;;;;;4.07;2.72;;;;;;;4.32;74.56;99174.47;5085387;28;20042;-93
2022/04/18 04:49:31;;;;;;;4.07;3.03;;;;;;;4.13;73.98;99156.97;5080552;28;20422;-93
2022/04/18 04:51:56;;;;;;;4.13;2.95;;;;;;;4.38;73.74;99175.38;5096415;28;20413;-91
2022/04/18 04:54:22;;;;;;;4.03;2.97;;;;;;;4.21;73.80;99161.94;5115559;28;20027;-92
2022/04/18 04:56:48;;;;;;;5.18;3.55;;;;;;;4.11;73.99;99130.56;5083285;28;20020;-91
2022/04/18 04:59:13;;;;;;;4.00;3.00;;;;;;;4.31;74.57;99156.84;5119189;28;20031;-94
2022/04/18 05:01:48;;;;;;;3.97;3.00;;;;;;;4.35;74.28;99160.69;5082923;28;20039;-93
2022/04/18 05:04:17;;;;;;;4.05;2.97;;;;;;;4.31;73.75;99162.19;5082881;28;20027;-91
2022/04/18 05:06:44;;;;;;;3.45;2.90;;;;;;;4.11;73.54;99148.41;5080915;28;20449;-90
2022/04/18 05:09:10;;;;;;;4.28;3.10;;;;;;;4.19;72.87;99151.53;5083412;28;20120;-93
2022/04/18 05:11:35;;;;;;;4.07;2.97;;;;;;;4.31;72.98;99161.38;5085012;28;20019;-93
2022/04/18 05:14:01;;;;;;;3.42;3.05;;;;;;;4.07;72.46;99164.06;5096241;28;20019;-90
2022/04/18 05:16:28;;;;;;;3.58;2.85;;;;;;;4.00;73.42;99184.66;5072081;28;20028;-89
2022/04/18 05:18:54;;;;;;;6.20;3.42;;;;;;;4.08;73.54;99170.19;5072288;28;20008;-89
2022/04/18 05:21:19;;;;;;;3.60;3.10;;;;;;;3.99;73.72;99169.72;5090693;28;20024;-89
2022/04/18 05:23:46;;;;;;;4.97;3.00;;;;;;;4.00;73.84;99169.47;5083152;28;20032;-91
2022/04/18 05:26:32;;;;;;;;;;;;;;;;;;;;;
2022/04/18 05:29:03;;;;;;;4.25;3.45;;;;;;;3.98;75.65;99152.09;5106882;28;20500;-93
2022/04/18 05:31:51;;;;;;;3.63;3.08;;;;;;;4.17;73.38;99158.13;5100881;28;20486;-93
2022/04/18 05:34:17;;;;;;;5.13;3.40;;;;;;;4.17;73.04;99168.78;5087698;28;20108;-93
2022/04/18 05:36:43;;;;;;;4.03;3.30;;;;;;;3.93;73.09;99131.50;5100039;28;20024;-94
2022/04/18 05:39:08;;;;;;;6.65;4.35;;;;;;;4.22;74.22;99166.25;5084027;28;20019;-93
2022/04/18 05:41:34;;;;;;;6.93;3.70;;;;;;;4.35;72.24;99158.00;5073413;28;20040;-94
2022/04/18 05:43:59;;;;;;;7.40;3.58;;;;;;;4.32;72.93;99173.69;5073623;28;20020;-94
2022/04/18 05:50:11;;;;;;;;;;;;;;;4.33;71.63;99196.59;5077821;28;20043;-93
2022/04/18 05:52:36;;;;;;;4.93;3.35;;;;;;;4.33;71.99;99189.41;5089843;28;20022;-93
2022/04/18 05:55:02;;;;;;;6.13;3.50;;;;;;;4.40;71.31;99175.97;5052176;28;20036;-93
2022/04/18 05:57:28;;;;;;;5.72;3.60;;;;;;;4.47;71.56;99167.88;5055838;28;20034;-94
2022/04/18 06:00:06;;;;;;;24.50;13.70;;;;;;;4.42;71.21;99149.88;5065490;28;20020;-95
2022/04/18 06:02:35;;;;;;;5.82;4.88;;;;;;;4.59;71.92;99155.34;5072207;28;20013;-95
2022/04/18 06:05:05;;;;;;;7.95;5.05;;;;;;;4.82;72.90;99171.28;5056762;28;20466;-96
2022/04/18 06:07:32;;;;;;;5.50;3.85;;;;;;;4.71;70.66;99148.13;5051076;28;20032;-94
2022/04/18 06:09:58;;;;;;;5.38;3.90;;;;;;;4.96;71.13;99174.50;5049700;28;20024;-94
2022/04/18 06:12:32;;;;;;;5.95;3.70;;;;;;;5.13;71.77;99192.44;5035236;28;20029;-93
2022/04/18 06:14:58;;;;;;;4.45;3.55;;;;;;;5.16;70.60;99186.59;5067777;28;20044;-93
2022/04/18 06:17:25;;;;;;;4.63;3.00;;;;;;;5.10;69.23;99176.88;5062472;28;20012;-96
2022/04/18 06:19:54;;;;;;;4.72;3.60;;;;;;;5.34;68.08;99191.75;5068246;28;20024;-96
2022/04/18 06:22:22;;;;;;;4.93;4.10;;;;;;;5.29;70.39;99185.50;5092216;28;20055;-94
2022/04/18 06:25:08;;;;;;;5.35;3.60;;;;;;;5.10;70.71;99150.19;5072815;28;20456;-95
2022/04/18 06:27:36;;;;;;;5.72;3.10;;;;;;;5.16;70.06;99191.94;5072711;28;20092;-93
2022/04/18 06:30:08;;;;;;;4.90;3.58;;;;;;;5.17;69.30;99189.06;5089877;28;20037;-92
2022/04/18 06:32:43;;;;;;;5.30;3.78;;;;;;;5.22;70.92;99166.97;5069537;28;20028;-93
2022/04/18 06:38:57;;;;;;;4.15;3.10;;;;;;;5.21;70.73;99192.88;4970492;28;20116;-93
2022/04/18 06:42:05;;;;;;;4.78;3.90;;;;;;;5.33;70.76;99189.31;4988429;28;20089;-95
2022/04/18 06:45:02;;;;;;;;;;;;;;;;;;;;;
2022/04/18 06:47:48;;;;;;;4.72;3.58;;;;;;;5.44;70.46;99196.50;4903266;29;20048;-96
2022/04/18 06:54:09;;;;;;;7.07;4.28;;;;;;;5.39;73.10;99199.06;5046021;28;20049;-96
2022/04/18 06:57:01;;;;;;;6.95;4.82;;;;;;;5.51;72.48;99172.31;4995412;28;20023;-94
2022/04/18 06:59:57;;;;;;;;;;;;;;;;;;;;;
2022/04/18 07:02:30;;;;;;;4.03;3.00;;;;;;;5.80;68.15;99195.25;5007792;28;20102;-92
2022/04/18 07:05:31;;;;;;;4.70;3.58;;;;;;;5.67;69.94;99193.69;4992035;28;20198;-94
2022/04/18 07:07:59;;;;;;;;;;;;;;;5.99;66.68;99197.72;5002698;28;20186;-93
2022/04/18 07:10:25;;;;;;;5.00;3.65;;;;;;;5.85;66.92;99157.94;4988111;28;19905;-94
2022/04/18 07:12:58;;;;;;;21.20;13.30;;;;;;;5.93;66.31;99171.94;4972147;28;20034;-93
2022/04/18 07:15:23;;;;;;;10.13;7.03;;;;;;;5.94;66.63;99176.25;4986336;28;20014;-93
2022/04/18 07:18:12;;;;;;;4.18;2.85;;;;;;;5.78;64.60;99151.94;5002472;28;20436;-89
2022/04/18 07:20:41;;;;;;;5.03;3.70;;;;;;;6.25;65.50;99175.69;5002454;28;20077;-94
2022/04/18 07:23:07;;;;;;;3.75;3.08;;;;;;;6.17;63.74;99175.28;4997314;28;20045;-95
2022/04/18 07:25:33;;;;;;;6.80;3.20;;;;;;;6.30;64.43;99182.97;5024538;28;20083;-92
2022/04/18 07:28:03;;;;;;;3.95;3.30;;;;;;;6.51;65.41;99180.59;5022234;28;20064;-92
2022/04/18 07:30:41;;;;;;;7.13;4.40;;;;;;;6.67;65.33;99185.91;5027594;28;20057;-93
2022/04/18 07:33:11;;;;;;;4.30;3.10;;;;;;;6.67;65.18;99177.88;5060635;28;20033;-92
2022/04/18 07:35:37;;;;;;;6.20;4.15;;;;;;;7.07;65.87;99200.84;5065191;28;20053;-92
2022/04/18 07:40:47;;;;;;;4.15;3.35;;;;;;;7.06;62.30;99169.00;5068733;28;20062;-92
2022/04/18 07:43:21;;;;;;;9.15;7.07;;;;;;;7.08;64.03;99180.25;5086036;28;20398;-92
2022/04/18 07:45:47;;;;;;;5.95;4.13;;;;;;;6.99;62.96;99171.88;5066741;28;20027;-92
2022/04/18 07:48:15;;;;;;;23.67;15.68;;;;;;;6.99;65.46;99181.75;5031840;28;20119;-91
2022/04/18 07:53:42;;;;;;;4.68;3.50;;;;;;;7.27;61.14;99191.44;5051622;28;20063;-92
2022/04/18 07:56:08;;;;;;;5.18;3.33;;;;;;;6.99;61.82;99179.88;5048909;28;20033;-92
2022/04/18 07:58:42;;;;;;;4.43;3.80;;;;;;;6.95;64.19;99194.84;5051662;28;20465;-95
2022/04/18 08:04:32;;;;;;;3.85;3.20;;;;;;;6.67;64.17;99153.78;5078262;28;20036;-96
2022/04/18 08:07:01;;;;;;;4.07;3.08;;;;;;;6.82;65.97;99173.78;5093626;22;20061;-94
2022/04/18 08:09:26;;;;;;;5.00;3.63;;;;;;;7.06;65.28;99193.09;4991859;28;20050;-94
2022/04/18 08:11:54;;;;;;;4.18;3.40;;;;;;;6.89;64.66;99163.72;4991151;28;20054;-94
2022/04/18 08:14:20;;;;;;;4.15;3.03;;;;;;;6.99;63.65;99160.31;5022643;28;20056;-94
2022/04/18 08:16:50;;;;;;;5.03;3.25;;;;;;;7.09;62.00;99161.25;5006231;28;20029;-96
2022/04/18 08:19:16;;;;;;;6.55;4.32;;;;;;;6.79;64.26;99148.31;5003877;28;20026;-93
2022/04/18 08:21:42;;;;;;;7.72;5.38;;;;;;;7.11;63.42;99186.97;5005831;28;20061;-94
2022/04/18 08:24:34;;;;;;;115.45;59.50;;;;;;;7.17;63.59;99172.59;4991775;28;20049;-92
2022/04/18 08:27:03;;;;;;;17.90;12.98;;;;;;;7.13;61.24;99174.94;4981002;28;20033;-94
2022/04/18 08:29:47;;;;;;;;;;;;;;;;;;;;;
2022/04/18 08:32:35;;;;;;;5.53;3.38;;;;;;;7.09;61.28;99171.16;5002099;28;20093;-93
2022/04/18 08:35:08;;;;;;;3.80;3.10;;;;;;;7.11;62.10;99173.59;5003925;28;20101;-89
2022/04/18 08:37:34;;;;;;;7.55;3.45;;;;;;;7.06;60.92;99163.63;5002913;28;20030;-88
2022/04/18 08:40:07;;;;;;;4.75;4.00;;;;;;;7.40;61.12;99188.34;4990274;28;20503;-91
2022/04/18 08:42:48;;;;;;;4.15;2.90;;;;;;;7.43;61.77;99198.59;4990779;28;20065;-94
2022/04/18 08:45:24;;;;;;;;;;;;;;;;;;;;;
2022/04/18 08:53:37;;;;;;;5.82;3.50;;;;;;;7.37;60.25;99167.44;5019119;28;20052;-91
2022/04/18 08:56:08;;;;;;;7.20;3.60;;;;;;;7.57;59.43;99198.97;5014229;28;20132;-89
2022/04/18 08:58:40;;;;;;;3.92;2.67;;;;;;;7.54;57.23;99191.44;5031480;28;20060;-91
2022/04/18 09:01:10;;;;;;;4.13;2.45;;;;;;;7.33;55.94;99179.72;4992669;28;20491;-94
2022/04/18 09:03:44;;;;;;;4.82;3.25;;;;;;;7.42;57.86;99185.44;5008053;28;20092;-92
2022/04/18 09:06:11;;;;;;;4.82;3.10;;;;;;;7.46;56.04;99165.91;5025949;28;20034;-92
2022/04/18 09:08:53;;;;;;;5.25;4.07;;;;;;;7.53;56.71;99183.66;5006322;28;20049;-90
2022/04/18 09:11:43;;;;;;;6.05;4.60;;;;;;;7.58;57.17;99187.22;5024962;28;20036;-92
2022/04/18 09:14:31;;;;;;;;;;;;;;;;;;;;;
2022/04/18 09:16:57;;;;;;;4.82;2.90;;;;;;;7.45;58.09;99172.34;5012773;28;20400;-91
2022/04/18 09:19:33;;;;;;;4.10;2.97;;;;;;;7.54;57.67;99175.38;5006113;28;20029;-93
2022/04/18 09:22:02;;;;;;;7.80;4.45;;;;;;;7.72;56.59;99171.53;4997938;28;20033;-89
2022/04/18 09:24:32;;;;;;;5.40;3.42;;;;;;;7.82;56.89;99179.66;5024010;28;20550;-92
2022/04/18 09:27:06;;;;;;;4.85;3.40;;;;;;;8.09;56.79;99181.47;4991375;28;20034;-92
2022/04/18 09:29:38;;;;;;;7.00;3.75;;;;;;;8.12;57.31;99185.53;5002234;28;20030;-94
2022/04/18 09:32:07;;;;;;;4.10;2.72;;;;;;;8.04;54.69;99168.03;4999549;28;20038;-93
2022/04/18 09:34:33;;;;;;;3.90;2.97;;;;;;;8.22;55.93;99189.09;5031834;28;20091;-93
2022/04/18 09:37:14;;;;;;;5.47;2.72;;;;;;;8.06;55.24;99166.72;4992523;28;20037;-95
2022/04/18 09:40:51;;;;;;;4.35;3.42;;;;;;;7.90;55.00;99176.50;5014393;28;20101;-93
2022/04/18 09:44:00;;;;;;;4.63;2.97;;;;;;;7.93;56.57;99175.19;4885998;29;20025;-95
2022/04/18 09:46:40;;;;;;;7.05;3.40;;;;;;;7.90;55.83;99192.56;4876416;29;20122;-92
2022/04/18 09:49:29;;;;;;;8.48;3.53;;;;;;;7.87;56.48;99205.69;4975950;28;20018;-96
2022/04/18 10:08:48;;;;;;;5.82;3.70;;;;;;;7.73;58.37;99204.50;4985148;28;20049;-91
2022/04/18 10:11:15;;;;;;;4.15;2.90;;;;;;;7.50;58.06;99190.34;4959969;28;20031;-93
2022/04/18 10:13:43;;;;;;;4.63;2.95;;;;;;;7.72;56.25;99198.34;4985707;28;20066;-93
2022/04/18 10:16:09;;;;;;;3.70;2.38;;;;;;;7.41;55.56;99179.28;4935777;28;20031;-91
2022/04/18 10:18:48;;;;;;;4.85;2.70;;;;;;;7.28;55.31;99182.34;4951411;28;20042;-91
2022/04/18 10:21:48;;;;;;;4.05;2.85;;;;;;;7.53;57.83;99211.25;4948523;28;20094;-91
2022/04/18 10:25:05;;;;;;;7.85;4.00;;;;;;;7.47;56.55;99188.97;4963082;28;20039;-94
2022/04/18 10:27:37;;;;;;;5.18;3.30;;;;;;;7.88;57.83;99218.81;4970925;23;20027;-95
2022/04/18 10:30:05;;;;;;;4.03;2.88;;;;;;;7.73;57.04;99185.75;5011613;28;20072;-94
2022/04/18 10:32:47;;;;;;;5.63;3.95;;;;;;;7.74;56.53;99188.16;4979404;28;20568;-95
2022/04/18 10:35:23;;;;;;;13.30;10.35;;;;;;;7.83;55.46;99175.91;4996718;28;20050;-93
2022/04/18 10:37:52;;;;;;;8.88;5.85;;;;;;;8.07;57.64;99188.97;4980195;28;20037;-93
2022/04/18 10:40:24;;;;;;;6.63;3.92;;;;;;;8.32;54.49;99203.63;4982772;28;20029;-92
2022/04/18 10:42:55;;;;;;;4.03;2.67;;;;;;;8.24;53.63;99178.91;5012002;28;20056;-93
2022/04/18 10:46:06;;;;;;;5.15;2.50;;;;;;;8.12;53.49;99154.16;4998603;28;20040;-94
2022/04/18 10:48:41;;;;;;;3.67;2.13;;;;;;;8.11;51.49;99182.03;4996065;28;20057;-95
2022/04/18 10:51:26;;;;;;;6.13;3.90;;;;;;;8.19;53.63;99183.44;5002820;28;20026;-92
2022/04/18 10:54:31;;;;;;;4.47;2.75;;;;;;;8.24;54.54;99202.25;4975768;28;20037;-93
2022/04/18 10:56:59;;;;;;;4.15;2.65;;;;;;;8.22;55.53;99199.81;4984905;28;20042;-92
2022/04/18 10:59:25;;;;;;;3.78;2.60;;;;;;;8.03;56.10;99210.13;5004614;28;20030;-90
2022/04/18 11:01:51;;;;;;;19.13;17.33;;;;;;;7.73;57.15;99189.22;4989236;28;20120;-88
2022/04/18 11:04:17;;;;;;;4.28;2.47;;;;;;;7.48;56.15;99195.94;4971714;28;20030;-90
2022/04/18 11:06:44;;;;;;;3.63;2.22;;;;;;;7.55;56.51;99205.66;4986563;28;20523;-89
2022/04/18 11:09:19;;;;;;;6.38;2.10;;;;;;;7.62;58.37;99206.28;4971559;28;20033;-91
2022/04/18 11:11:53;;;;;;;27.42;18.15;;;;;;;7.44;59.34;99181.44;4994809;28;20044;-89
2022/04/18 11:14:18;;;;;;;10.15;7.35;;;;;;;7.53;58.97;99202.41;4971270;28;20021;-91
2022/04/18 11:16:44;;;;;;;3.20;2.25;;;;;;;7.62;56.35;99201.72;4997975;28;20057;-90
2022/04/18 11:19:16;;;;;;;3.40;2.65;;;;;;;7.72;56.36;99195.66;5000480;28;20042;-89
2022/04/18 11:24:54;;;;;;;3.35;2.40;;;;;;;7.49;55.54;99178.81;4961740;29;20042;-91
2022/04/18 11:27:22;;;;;;;3.55;2.70;;;;;;;7.85;54.53;99203.28;4955295;28;20046;-94
2022/04/18 11:29:53;;;;;;;6.03;2.33;;;;;;;7.94;53.05;99197.44;4980507;28;20053;-91
2022/04/18 11:32:21;;;;;;;3.00;2.40;;;;;;;7.70;53.81;99170.97;4972438;28;20473;-90
2022/04/18 11:34:49;;;;;;;3.25;2.42;;;;;;;7.52;56.52;99174.03;4960361;28;20034;-91
2022/04/18 11:41:15;;;;;;;3.05;2.17;;;;;;;7.67;56.29;99155.41;4933236;29;20043;-93
2022/04/18 11:43:45;;;;;;;5.07;2.47;;;;;;;7.63;54.95;99159.66;4926390;28;20074;-91
2022/04/18 11:46:11;;;;;;;7.05;2.42;;;;;;;7.95;56.12;99167.72;4967452;28;20204;-90
2022/04/18 11:48:37;;;;;;;2.78;2.10;;;;;;;8.20;55.58;99175.13;4970645;28;20019;-91
2022/04/18 11:51:08;;;;;;;3.38;1.88;;;;;;;8.36;53.41;99169.84;4971735;28;20042;-92
2022/04/18 11:53:34;;;;;;;4.35;2.50;;;;;;;8.12;52.92;99121.97;4964697;28;20023;-89
2022/04/18 11:56:05;;;;;;;5.32;3.40;;;;;;;8.29;54.11;99173.56;4968049;28;20345;-92
2022/04/18 11:58:35;;;;;;;3.97;3.03;;;;;;;8.20;53.70;99153.66;4959014;28;20026;-90
2022/04/18 12:06:46;;;;;;;7.68;3.13;;;;;;;8.58;53.62;99142.91;4954971;28;20101;-92
2022/04/18 12:09:16;;;;;;;4.00;3.08;;;;;;;8.78;50.35;99148.38;4952941;28;20031;-93
2022/04/18 12:11:42;;;;;;;5.65;2.42;;;;;;;8.67;48.44;99130.59;4954047;28;20033;-92
2022/04/18 12:14:07;;;;;;;4.72;3.05;;;;;;;8.98;51.43;99146.84;4962855;28;20010;-95
2022/04/18 12:16:45;;;;;;;2.70;2.03;;;;;;;9.02;48.72;99142.56;4952479;28;20117;-92
2022/04/18 12:19:11;;;;;;;5.38;3.30;;;;;;;8.94;49.62;99124.28;4950942;28;20058;-93
2022/04/18 12:21:37;;;;;;;7.60;4.47;;;;;;;9.04;50.76;99146.59;4946940;28;20026;-92
2022/04/18 12:24:03;;;;;;;7.72;3.50;;;;;;;8.88;51.47;99161.84;4958505;28;20027;-94
2022/04/18 12:26:33;;;;;;;15.02;3.80;;;;;;;8.90;51.22;99123.97;4959638;28;20042;-93
2022/04/18 12:29:07;;;;;;;11.77;5.70;;;;;;;9.16;51.41;99141.00;4985545;28;20512;-92
2022/04/18 12:31:33;;;;;;;3.70;2.85;;;;;;;9.10;52.91;99124.03;4966048;28;20510;-91
2022/04/18 12:33:59;;;;;;;3.30;2.58;;;;;;;9.01;53.47;99116.78;4985709;28;20022;-92
2022/04/18 12:36:30;;;;;;;3.65;2.47;;;;;;;9.03;53.99;99126.19;4985825;28;20027;-93
2022/04/18 12:38:56;;;;;;;11.38;3.13;;;;;;;8.72;55.65;99127.16;4985879;28;20125;-92
2022/04/18 12:41:35;;;;;;;14.38;3.78;;;;;;;8.61;56.01;99132.47;4952699;28;20460;-92
2022/04/18 12:44:01;;;;;;;7.03;3.45;;;;;;;8.45;56.77;99114.69;4986544;28;20026;-92
2022/04/18 12:46:30;;;;;;;4.75;2.60;;;;;;;8.09;57.60;99117.94;4985813;28;20440;-91
2022/04/18 12:49:16;;;;;;;18.65;4.07;;;;;;;8.40;59.15;99149.50;4972950;28;20121;-93
2022/04/18 12:51:43;;;;;;;7.00;3.42;;;;;;;8.10;59.16;99103.44;5008282;28;20030;-92
2022/04/18 12:54:19;;;;;;;16.30;3.60;;;;;;;8.51;58.13;99121.69;5003066;28;20034;-90
2022/04/18 12:56:48;;;;;;;3.08;2.17;;;;;;;8.35;58.62;99130.69;4979851;28;20034;-88
2022/04/18 12:59:37;;;;;;;15.15;2.70;;;;;;;8.12;57.70;99108.56;4983361;28;20035;-92
2022/04/18 13:02:07;;;;;;;6.50;2.47;;;;;;;8.06;57.74;99147.13;5018372;28;20104;-91
2022/04/18 13:04:34;;;;;;;3.15;2.30;;;;;;;7.92;56.51;99111.91;4953217;28;20053;-91
2022/04/18 13:07:10;;;;;;;11.80;3.80;;;;;;;8.16;56.65;99109.66;4959860;28;20036;-91
2022/04/18 13:09:35;;;;;;;9.57;3.90;;;;;;;8.37;57.49;99109.78;4973415;28;20026;-90
2022/04/18 13:12:03;;;;;;;6.72;2.38;;;;;;;8.62;55.46;99131.41;4970231;28;20045;-90